sensor_id;sensor_type;location;lat;lon;timestamp;pressure;altitude;pressure_sealevel;temperature;humidity
20710;BME280;10516;51.518;9.864;2022-09-09T00:03:53;98257.44;;;15.72;79.67
20710;BME280;10516;51.518;9.864;2022-09-09T00:06:26;98251.03;;;15.68;79.12
20710;BME280;10516;51.518;9.864;2022-09-09T00:11:36;98252.13;;;15.67;79.19
20710;BME280;10516;51.518;9.864;2022-09-09T00:14:13;98233.47;;;15.57;79.38
20710;BME280;10516;51.518;9.864;2022-09-09T00:16:42;98240.66;;;15.61;79.80
20710;BME280;10516;51.518;9.864;2022-09-09T00:19:20;98240.66;;;15.61;79.80
20710;BME280;10516;51.518;9.864;2022-09-09T00:22:06;98243.66;;;15.73;79.38
20710;BME280;10516;51.518;9.864;2022-09-09T00:24:38;98249.44;;;15.67;79.46
20710;BME280;10516;51.518;9.864;2022-09-09T00:27:19;98227.69;;;15.50;79.69
20710;BME280;10516;51.518;9.864;2022-09-09T00:32:37;98220.69;;;15.49;79.82
20710;BME280;10516;51.518;9.864;2022-09-09T00:37:41;98232.06;;;15.46;79.50
20710;BME280;10516;51.518;9.864;2022-09-09T00:40:28;98241.56;;;15.57;79.84
20710;BME280;10516;51.518;9.864;2022-09-09T00:43:21;98239.44;;;15.54;79.76
20710;BME280;10516;51.518;9.864;2022-09-09T00:51:25;98241.84;;;15.37;79.59
20710;BME280;10516;51.518;9.864;2022-09-09T00:54:03;98239.25;;;15.50;79.60
20710;BME280;10516;51.518;9.864;2022-09-09T00:56:45;98214.72;;;15.33;79.44
20710;BME280;10516;51.518;9.864;2022-09-09T01:01:48;98227.91;;;15.35;79.66
20710;BME280;10516;51.518;9.864;2022-09-09T01:04:19;98241.94;;;15.50;79.44
20710;BME280;10516;51.518;9.864;2022-09-09T01:06:51;98228.97;;;15.34;79.90
20710;BME280;10516;51.518;9.864;2022-09-09T01:09:40;98249.63;;;15.38;79.58
20710;BME280;10516;51.518;9.864;2022-09-09T01:14:51;98218.91;;;15.26;79.53
20710;BME280;10516;51.518;9.864;2022-09-09T01:22:22;98213.19;;;15.14;79.70
20710;BME280;10516;51.518;9.864;2022-09-09T01:27:35;98247.91;;;15.29;79.82
20710;BME280;10516;51.518;9.864;2022-09-09T01:30:11;98225.53;;;15.15;79.86
20710;BME280;10516;51.518;9.864;2022-09-09T01:32:53;98227.72;;;15.13;79.90
20710;BME280;10516;51.518;9.864;2022-09-09T01:37:52;98213.00;;;14.91;80.19
20710;BME280;10516;51.518;9.864;2022-09-09T01:40:17;98230.13;;;14.95;80.54
20710;BME280;10516;51.518;9.864;2022-09-09T01:42:43;98253.06;;;15.25;80.12
20710;BME280;10516;51.518;9.864;2022-09-09T01:45:09;98223.78;;;15.05;79.83
20710;BME280;10516;51.518;9.864;2022-09-09T01:47:35;98243.53;;;15.14;80.44
20710;BME280;10516;51.518;9.864;2022-09-09T01:50:01;98234.84;;;15.03;80.01
20710;BME280;10516;51.518;9.864;2022-09-09T01:52:28;98241.47;;;15.11;79.74
20710;BME280;10516;51.518;9.864;2022-09-09T01:54:53;98231.94;;;15.00;79.79
20710;BME280;10516;51.518;9.864;2022-09-09T01:57:30;98239.56;;;15.12;79.89
20710;BME280;10516;51.518;9.864;2022-09-09T02:05:37;98239.66;;;15.07;80.32
20710;BME280;10516;51.518;9.864;2022-09-09T02:08:12;98226.34;;;14.96;80.02
20710;BME280;10516;51.518;9.864;2022-09-09T02:10:45;98211.84;;;14.97;79.52
20710;BME280;10516;51.518;9.864;2022-09-09T02:13:17;98237.59;;;14.98;80.11
20710;BME280;10516;51.518;9.864;2022-09-09T02:15:56;98240.31;;;14.14;81.88
20710;BME280;10516;51.518;9.864;2022-09-09T02:18:34;98230.44;;;14.75;81.46
20710;BME280;10516;51.518;9.864;2022-09-09T02:21:01;98176.19;;;14.55;80.21
20710;BME280;10516;51.518;9.864;2022-09-09T02:23:28;98253.72;;;14.98;80.50
20710;BME280;10516;51.518;9.864;2022-09-09T02:25:56;98239.06;;;14.91;80.31
20710;BME280;10516;51.518;9.864;2022-09-09T02:28:25;98246.31;;;14.53;81.66
20710;BME280;10516;51.518;9.864;2022-09-09T02:30:51;98237.47;;;14.90;81.09
20710;BME280;10516;51.518;9.864;2022-09-09T02:33:23;98225.19;;;14.65;82.09
20710;BME280;10516;51.518;9.864;2022-09-09T02:35:52;98229.34;;;14.95;80.94
20710;BME280;10516;51.518;9.864;2022-09-09T02:38:20;98214.75;;;14.82;81.03
20710;BME280;10516;51.518;9.864;2022-09-09T02:40:47;98211.06;;;14.78;81.13
20710;BME280;10516;51.518;9.864;2022-09-09T02:43:14;98236.97;;;15.07;81.11
20710;BME280;10516;51.518;9.864;2022-09-09T02:48:50;98230.41;;;15.13;80.34
20710;BME280;10516;51.518;9.864;2022-09-09T02:54:23;98237.28;;;15.19;80.56
20710;BME280;10516;51.518;9.864;2022-09-09T02:56:54;98222.28;;;14.99;80.63
20710;BME280;10516;51.518;9.864;2022-09-09T02:59:22;98237.00;;;15.20;80.54
20710;BME280;10516;51.518;9.864;2022-09-09T03:01:49;98235.06;;;15.07;81.06
20710;BME280;10516;51.518;9.864;2022-09-09T03:04:17;98223.06;;;15.18;80.82
20710;BME280;10516;51.518;9.864;2022-09-09T03:06:42;98227.53;;;15.09;80.57
20710;BME280;10516;51.518;9.864;2022-09-09T03:09:08;98241.72;;;15.10;80.98
20710;BME280;10516;51.518;9.864;2022-09-09T03:11:35;98238.31;;;15.23;80.84
20710;BME280;10516;51.518;9.864;2022-09-09T03:14:01;98243.09;;;15.26;80.58
20710;BME280;10516;51.518;9.864;2022-09-09T03:16:27;98220.91;;;15.01;80.75
20710;BME280;10516;51.518;9.864;2022-09-09T03:18:52;98242.91;;;15.22;81.03
20710;BME280;10516;51.518;9.864;2022-09-09T03:21:18;98226.91;;;15.12;80.70
20710;BME280;10516;51.518;9.864;2022-09-09T03:23:43;98231.72;;;15.15;80.81
20710;BME280;10516;51.518;9.864;2022-09-09T03:26:10;98241.38;;;15.16;81.02
20710;BME280;10516;51.518;9.864;2022-09-09T03:28:35;98240.06;;;15.14;81.25
20710;BME280;10516;51.518;9.864;2022-09-09T03:31:02;98230.59;;;15.16;81.11
20710;BME280;10516;51.518;9.864;2022-09-09T03:33:28;98243.56;;;14.77;82.71
20710;BME280;10516;51.518;9.864;2022-09-09T03:35:55;98242.44;;;14.41;84.32
20710;BME280;10516;51.518;9.864;2022-09-09T03:38:22;98235.56;;;14.90;82.66
20710;BME280;10516;51.518;9.864;2022-09-09T03:40:50;98246.47;;;14.99;82.29
20710;BME280;10516;51.518;9.864;2022-09-09T03:43:16;98225.34;;;15.11;81.91
20710;BME280;10516;51.518;9.864;2022-09-09T03:45:45;98228.38;;;14.86;82.33
20710;BME280;10516;51.518;9.864;2022-09-09T03:48:13;98214.31;;;14.75;82.51
20710;BME280;10516;51.518;9.864;2022-09-09T03:50:38;98206.44;;;14.79;82.56
20710;BME280;10516;51.518;9.864;2022-09-09T03:53:03;98230.03;;;15.00;83.25
20710;BME280;10516;51.518;9.864;2022-09-09T03:55:31;98230.91;;;15.15;82.31
20710;BME280;10516;51.518;9.864;2022-09-09T03:57:57;98232.53;;;15.16;81.00
20710;BME280;10516;51.518;9.864;2022-09-09T04:00:23;98207.41;;;14.69;83.12
20710;BME280;10516;51.518;9.864;2022-09-09T04:02:48;98219.47;;;14.90;82.99
20710;BME280;10516;51.518;9.864;2022-09-09T04:05:14;98209.22;;;14.55;83.85
20710;BME280;10516;51.518;9.864;2022-09-09T04:07:40;98217.41;;;15.01;82.28
20710;BME280;10516;51.518;9.864;2022-09-09T04:10:06;98208.84;;;15.18;81.28
20710;BME280;10516;51.518;9.864;2022-09-09T04:12:32;98224.53;;;15.11;81.23
20710;BME280;10516;51.518;9.864;2022-09-09T04:14:57;98219.53;;;15.04;82.00
20710;BME280;10516;51.518;9.864;2022-09-09T04:17:23;98225.53;;;15.15;80.97
20710;BME280;10516;51.518;9.864;2022-09-09T04:19:48;98205.00;;;14.68;82.48
20710;BME280;10516;51.518;9.864;2022-09-09T04:22:13;98215.19;;;14.89;81.89
20710;BME280;10516;51.518;9.864;2022-09-09T04:24:39;98205.22;;;14.90;81.69
20710;BME280;10516;51.518;9.864;2022-09-09T04:27:04;98213.06;;;14.68;82.23
20710;BME280;10516;51.518;9.864;2022-09-09T04:29:30;98199.78;;;14.76;81.62
20710;BME280;10516;51.518;9.864;2022-09-09T04:31:55;98206.91;;;14.86;81.04
20710;BME280;10516;51.518;9.864;2022-09-09T04:34:20;98219.38;;;14.58;82.22
20710;BME280;10516;51.518;9.864;2022-09-09T04:36:46;98203.50;;;14.80;81.58
20710;BME280;10516;51.518;9.864;2022-09-09T04:39:11;98200.22;;;14.83;81.37
20710;BME280;10516;51.518;9.864;2022-09-09T04:41:37;98230.13;;;14.95;80.93
20710;BME280;10516;51.518;9.864;2022-09-09T04:44:03;98223.09;;;14.62;81.25
20710;BME280;10516;51.518;9.864;2022-09-09T04:46:28;98224.25;;;14.93;81.18
20710;BME280;10516;51.518;9.864;2022-09-09T04:48:54;98236.38;;;14.91;81.27
20710;BME280;10516;51.518;9.864;2022-09-09T04:51:19;98238.09;;;15.00;80.84
20710;BME280;10516;51.518;9.864;2022-09-09T04:53:46;98228.19;;;14.82;80.47
20710;BME280;10516;51.518;9.864;2022-09-09T04:56:17;98225.06;;;14.75;81.46
20710;BME280;10516;51.518;9.864;2022-09-09T04:58:43;98195.13;;;14.45;81.95
20710;BME280;10516;51.518;9.864;2022-09-09T05:01:10;98207.41;;;14.69;81.16
20710;BME280;10516;51.518;9.864;2022-09-09T05:03:36;98246.84;;;14.92;81.18
20710;BME280;10516;51.518;9.864;2022-09-09T05:06:11;98230.63;;;14.79;81.30
20710;BME280;10516;51.518;9.864;2022-09-09T05:08:38;98242.47;;;14.96;80.59
20710;BME280;10516;51.518;9.864;2022-09-09T05:13:43;98217.91;;;14.66;81.16
20710;BME280;10516;51.518;9.864;2022-09-09T05:16:09;98246.25;;;14.95;80.77
20710;BME280;10516;51.518;9.864;2022-09-09T05:18:37;98239.34;;;14.71;81.19
20710;BME280;10516;51.518;9.864;2022-09-09T05:21:03;98250.03;;;14.76;80.53
20710;BME280;10516;51.518;9.864;2022-09-09T05:23:28;98248.25;;;14.24;83.69
20710;BME280;10516;51.518;9.864;2022-09-09T05:25:57;98245.28;;;14.49;81.55
20710;BME280;10516;51.518;9.864;2022-09-09T05:28:24;98255.31;;;14.62;82.13
20710;BME280;10516;51.518;9.864;2022-09-09T05:33:24;98249.19;;;14.38;83.46
20710;BME280;10516;51.518;9.864;2022-09-09T05:36:01;98246.56;;;13.52;86.25
20710;BME280;10516;51.518;9.864;2022-09-09T05:38:28;98249.00;;;14.06;84.75
20710;BME280;10516;51.518;9.864;2022-09-09T05:40:54;98249.84;;;14.25;83.13
20710;BME280;10516;51.518;9.864;2022-09-09T05:43:21;98266.19;;;13.76;86.25
20710;BME280;10516;51.518;9.864;2022-09-09T05:46:02;98265.59;;;14.37;84.38
20710;BME280;10516;51.518;9.864;2022-09-09T05:48:30;98269.31;;;13.60;87.62
20710;BME280;10516;51.518;9.864;2022-09-09T05:50:57;98257.03;;;14.35;84.96
20710;BME280;10516;51.518;9.864;2022-09-09T05:53:22;98251.38;;;14.55;83.71
20710;BME280;10516;51.518;9.864;2022-09-09T05:55:48;98261.59;;;14.76;82.15
20710;BME280;10516;51.518;9.864;2022-09-09T05:58:13;98270.16;;;14.97;81.74
20710;BME280;10516;51.518;9.864;2022-09-09T06:00:40;98270.53;;;15.09;81.20
20710;BME280;10516;51.518;9.864;2022-09-09T06:03:05;98270.28;;;15.06;81.76
20710;BME280;10516;51.518;9.864;2022-09-09T06:05:32;98263.50;;;15.27;80.39
20710;BME280;10516;51.518;9.864;2022-09-09T06:07:57;98267.16;;;15.17;80.40
20710;BME280;10516;51.518;9.864;2022-09-09T06:10:23;98264.09;;;15.05;80.82
20710;BME280;10516;51.518;9.864;2022-09-09T06:12:48;98264.69;;;14.83;82.34
20710;BME280;10516;51.518;9.864;2022-09-09T06:15:13;98259.41;;;14.78;82.22
20710;BME280;10516;51.518;9.864;2022-09-09T06:17:39;98282.16;;;15.05;82.02
20710;BME280;10516;51.518;9.864;2022-09-09T06:20:07;98284.91;;;14.99;82.23
20710;BME280;10516;51.518;9.864;2022-09-09T06:22:34;98277.94;;;15.17;80.95
20710;BME280;10516;51.518;9.864;2022-09-09T06:24:59;98278.25;;;15.29;81.42
20710;BME280;10516;51.518;9.864;2022-09-09T06:27:27;98269.44;;;14.91;82.97
20710;BME280;10516;51.518;9.864;2022-09-09T06:29:52;98266.53;;;15.07;82.70
20710;BME280;10516;51.518;9.864;2022-09-09T06:32:18;98265.31;;;15.31;80.91
20710;BME280;10516;51.518;9.864;2022-09-09T06:34:43;98262.66;;;15.50;80.53
20710;BME280;10516;51.518;9.864;2022-09-09T06:37:10;98265.72;;;15.06;83.44
20710;BME280;10516;51.518;9.864;2022-09-09T06:39:35;98281.41;;;15.18;84.58
20710;BME280;10516;51.518;9.864;2022-09-09T06:42:01;98284.75;;;14.91;85.79
20710;BME280;10516;51.518;9.864;2022-09-09T06:44:26;98283.16;;;15.09;84.55
20710;BME280;10516;51.518;9.864;2022-09-09T06:46:52;98277.78;;;14.90;87.18
20710;BME280;10516;51.518;9.864;2022-09-09T06:49:17;98282.75;;;14.59;91.34
20710;BME280;10516;51.518;9.864;2022-09-09T06:51:43;98284.59;;;15.01;87.99
20710;BME280;10516;51.518;9.864;2022-09-09T06:54:10;98276.69;;;14.91;89.49
20710;BME280;10516;51.518;9.864;2022-09-09T06:56:40;98266.81;;;14.86;88.52
20710;BME280;10516;51.518;9.864;2022-09-09T06:59:07;98271.38;;;15.42;83.73
20710;BME280;10516;51.518;9.864;2022-09-09T07:01:35;98253.56;;;15.27;86.78
20710;BME280;10516;51.518;9.864;2022-09-09T07:04:02;98248.06;;;15.00;90.91
20710;BME280;10516;51.518;9.864;2022-09-09T07:06:34;98267.38;;;15.21;90.42
20710;BME280;10516;51.518;9.864;2022-09-09T07:09:05;98283.66;;;15.48;87.52
20710;BME280;10516;51.518;9.864;2022-09-09T07:11:34;98264.97;;;15.00;92.45
20710;BME280;10516;51.518;9.864;2022-09-09T07:14:02;98263.75;;;15.30;87.96
20710;BME280;10516;51.518;9.864;2022-09-09T07:16:28;98275.63;;;15.43;88.78
20710;BME280;10516;51.518;9.864;2022-09-09T07:18:54;98272.16;;;15.61;84.68
20710;BME280;10516;51.518;9.864;2022-09-09T07:21:24;98275.56;;;15.80;84.00
20710;BME280;10516;51.518;9.864;2022-09-09T07:23:51;98294.44;;;15.94;85.46
20710;BME280;10516;51.518;9.864;2022-09-09T07:26:19;98292.16;;;15.87;84.62
20710;BME280;10516;51.518;9.864;2022-09-09T07:28:46;98293.78;;;16.15;82.88
20710;BME280;10516;51.518;9.864;2022-09-09T07:31:20;98280.22;;;16.20;82.60
20710;BME280;10516;51.518;9.864;2022-09-09T07:33:47;98294.78;;;16.33;82.04
20710;BME280;10516;51.518;9.864;2022-09-09T07:36:15;98279.91;;;16.08;83.37
20710;BME280;10516;51.518;9.864;2022-09-09T07:38:43;98268.41;;;15.89;84.74
20710;BME280;10516;51.518;9.864;2022-09-09T07:41:12;98289.91;;;16.35;82.56
20710;BME280;10516;51.518;9.864;2022-09-09T07:43:40;98302.28;;;16.22;83.76
20710;BME280;10516;51.518;9.864;2022-09-09T07:46:09;98304.56;;;16.29;83.56
20710;BME280;10516;51.518;9.864;2022-09-09T07:48:35;98288.69;;;16.27;83.34
20710;BME280;10516;51.518;9.864;2022-09-09T07:51:14;98303.38;;;16.35;83.95
20710;BME280;10516;51.518;9.864;2022-09-09T07:53:44;98288.50;;;16.37;81.69
20710;BME280;10516;51.518;9.864;2022-09-09T07:56:13;98303.19;;;16.31;83.58
20710;BME280;10516;51.518;9.864;2022-09-09T07:58:40;98297.16;;;16.07;84.54
20710;BME280;10516;51.518;9.864;2022-09-09T08:01:11;98289.41;;;16.33;81.82
20710;BME280;10516;51.518;9.864;2022-09-09T08:03:38;98282.63;;;16.35;82.44
20710;BME280;10516;51.518;9.864;2022-09-09T08:06:07;98303.47;;;16.43;81.57
20710;BME280;10516;51.518;9.864;2022-09-09T08:08:34;98295.47;;;16.38;81.42
20710;BME280;10516;51.518;9.864;2022-09-09T08:11:09;98310.25;;;16.41;81.93
20710;BME280;10516;51.518;9.864;2022-09-09T08:13:36;98292.69;;;16.43;81.17
20710;BME280;10516;51.518;9.864;2022-09-09T08:16:11;98299.38;;;16.46;82.53
20710;BME280;10516;51.518;9.864;2022-09-09T08:18:37;98301.47;;;16.49;82.45
20710;BME280;10516;51.518;9.864;2022-09-09T08:21:06;98295.72;;;16.56;82.49
20710;BME280;10516;51.518;9.864;2022-09-09T08:23:32;98305.31;;;16.62;82.28
20710;BME280;10516;51.518;9.864;2022-09-09T08:26:06;98296.00;;;16.68;80.67
20710;BME280;10516;51.518;9.864;2022-09-09T08:28:34;98300.59;;;16.67;81.60
20710;BME280;10516;51.518;9.864;2022-09-09T08:31:08;98295.50;;;16.66;81.04
20710;BME280;10516;51.518;9.864;2022-09-09T08:33:34;98305.56;;;16.74;80.89
20710;BME280;10516;51.518;9.864;2022-09-09T08:36:02;98316.19;;;16.70;80.98
20710;BME280;10516;51.518;9.864;2022-09-09T08:38:28;98268.09;;;16.50;80.62
20710;BME280;10516;51.518;9.864;2022-09-09T08:41:04;98308.78;;;16.76;80.41
20710;BME280;10516;51.518;9.864;2022-09-09T08:43:33;98287.34;;;16.71;80.57
20710;BME280;10516;51.518;9.864;2022-09-09T08:46:12;98304.28;;;16.85;80.31
20710;BME280;10516;51.518;9.864;2022-09-09T08:49:05;98317.66;;;16.90;80.14
20710;BME280;10516;51.518;9.864;2022-09-09T08:51:35;98295.38;;;16.84;80.21
20710;BME280;10516;51.518;9.864;2022-09-09T08:54:03;98320.13;;;16.86;80.01
20710;BME280;10516;51.518;9.864;2022-09-09T08:56:31;98304.19;;;16.76;80.47
20710;BME280;10516;51.518;9.864;2022-09-09T08:58:59;98324.94;;;16.89;80.09
20710;BME280;10516;51.518;9.864;2022-09-09T09:07:11;98325.31;;;16.96;79.05
20710;BME280;10516;51.518;9.864;2022-09-09T09:12:23;98303.53;;;16.93;79.53
20710;BME280;10516;51.518;9.864;2022-09-09T09:14:50;98334.41;;;17.00;79.84
20710;BME280;10516;51.518;9.864;2022-09-09T09:17:20;98320.19;;;17.08;79.40
20710;BME280;10516;51.518;9.864;2022-09-09T09:19:48;98298.69;;;17.17;78.97
20710;BME280;10516;51.518;9.864;2022-09-09T09:24:56;98307.06;;;17.29;79.58
20710;BME280;10516;51.518;9.864;2022-09-09T09:27:40;98308.06;;;17.33;80.04
20710;BME280;10516;51.518;9.864;2022-09-09T09:30:19;98314.97;;;17.48;78.69
20710;BME280;10516;51.518;9.864;2022-09-09T09:32:58;98316.31;;;17.50;78.77
20710;BME280;10516;51.518;9.864;2022-09-09T09:35:26;98306.09;;;17.47;77.91
20710;BME280;10516;51.518;9.864;2022-09-09T09:37:52;98324.19;;;17.60;77.20
20710;BME280;10516;51.518;9.864;2022-09-09T09:40:20;98327.22;;;17.67;76.87
20710;BME280;10516;51.518;9.864;2022-09-09T09:43:00;98319.44;;;17.66;76.76
20710;BME280;10516;51.518;9.864;2022-09-09T09:48:01;98306.75;;;17.66;75.83
20710;BME280;10516;51.518;9.864;2022-09-09T09:50:27;98310.75;;;17.69;76.54
20710;BME280;10516;51.518;9.864;2022-09-09T09:52:57;98298.94;;;17.65;77.17
20710;BME280;10516;51.518;9.864;2022-09-09T09:55:24;98294.88;;;17.76;75.72
20710;BME280;10516;51.518;9.864;2022-09-09T09:57:50;98293.47;;;17.78;75.60
20710;BME280;10516;51.518;9.864;2022-09-09T10:00:21;98305.97;;;17.96;74.91
20710;BME280;10516;51.518;9.864;2022-09-09T10:02:48;98308.13;;;18.08;74.63
20710;BME280;10516;51.518;9.864;2022-09-09T10:05:18;98304.50;;;18.13;74.56
20710;BME280;10516;51.518;9.864;2022-09-09T10:07:45;98285.72;;;18.08;74.03
20710;BME280;10516;51.518;9.864;2022-09-09T10:10:37;98306.25;;;18.17;73.36
20710;BME280;10516;51.518;9.864;2022-09-09T10:13:15;98298.00;;;18.22;72.75
20710;BME280;10516;51.518;9.864;2022-09-09T10:15:56;98298.72;;;18.36;72.15
20710;BME280;10516;51.518;9.864;2022-09-09T10:18:38;98283.03;;;18.47;71.73
20710;BME280;10516;51.518;9.864;2022-09-09T10:22:01;98298.53;;;18.72;71.12
20710;BME280;10516;51.518;9.864;2022-09-09T10:32:31;98286.50;;;18.95;69.81
20710;BME280;10516;51.518;9.864;2022-09-09T10:35:09;98273.47;;;19.06;69.36
20710;BME280;10516;51.518;9.864;2022-09-09T10:37:49;98273.31;;;19.19;69.41
20710;BME280;10516;51.518;9.864;2022-09-09T10:43:00;98283.69;;;19.43;69.00
20710;BME280;10516;51.518;9.864;2022-09-09T10:45:39;98247.34;;;19.18;68.34
20710;BME280;10516;51.518;9.864;2022-09-09T10:48:21;98283.53;;;19.48;68.00
20710;BME280;10516;51.518;9.864;2022-09-09T10:56:27;98275.69;;;19.72;64.37
20710;BME280;10516;51.518;9.864;2022-09-09T10:59:04;98283.81;;;19.81;64.60
20710;BME280;10516;51.518;9.864;2022-09-09T11:04:25;98274.22;;;19.92;64.24
20710;BME280;10516;51.518;9.864;2022-09-09T11:06:54;98276.66;;;19.68;64.99
20710;BME280;10516;51.518;9.864;2022-09-09T11:09:26;98263.88;;;19.77;64.35
20710;BME280;10516;51.518;9.864;2022-09-09T11:11:58;98273.94;;;19.76;64.63
20710;BME280;10516;51.518;9.864;2022-09-09T11:14:43;98243.19;;;19.72;64.89
20710;BME280;10516;51.518;9.864;2022-09-09T11:17:23;98274.47;;;20.07;64.73
20710;BME280;10516;51.518;9.864;2022-09-09T11:19:50;98263.59;;;20.16;64.58
20710;BME280;10516;51.518;9.864;2022-09-09T11:25:38;98268.06;;;20.12;64.56
20710;BME280;10516;51.518;9.864;2022-09-09T11:36:25;98258.69;;;20.01;64.08
20710;BME280;10516;51.518;9.864;2022-09-09T11:38:52;98255.97;;;20.09;62.44
20710;BME280;10516;51.518;9.864;2022-09-09T11:41:22;98265.38;;;20.12;63.88
20710;BME280;10516;51.518;9.864;2022-09-09T11:43:52;98239.75;;;20.01;63.34
20710;BME280;10516;51.518;9.864;2022-09-09T11:46:21;98247.38;;;20.07;62.70
20710;BME280;10516;51.518;9.864;2022-09-09T11:49:03;98255.47;;;20.25;62.53
20710;BME280;10516;51.518;9.864;2022-09-09T11:51:30;98251.13;;;20.32;62.11
20710;BME280;10516;51.518;9.864;2022-09-09T11:53:58;98258.63;;;20.35;62.18
20710;BME280;10516;51.518;9.864;2022-09-09T11:56:32;98261.47;;;20.39;62.12
20710;BME280;10516;51.518;9.864;2022-09-09T11:59:01;98251.09;;;20.41;62.20
20710;BME280;10516;51.518;9.864;2022-09-09T12:01:36;98239.44;;;20.40;61.61
20710;BME280;10516;51.518;9.864;2022-09-09T12:06:32;98249.13;;;20.50;60.74
20710;BME280;10516;51.518;9.864;2022-09-09T12:09:07;98230.28;;;20.53;60.61
20710;BME280;10516;51.518;9.864;2022-09-09T12:11:36;98236.31;;;20.59;60.36
20710;BME280;10516;51.518;9.864;2022-09-09T12:14:02;98242.03;;;20.66;59.77
20710;BME280;10516;51.518;9.864;2022-09-09T12:16:36;98233.16;;;20.77;59.23
20710;BME280;10516;51.518;9.864;2022-09-09T12:19:19;98252.69;;;20.91;58.96
20710;BME280;10516;51.518;9.864;2022-09-09T12:21:49;98254.56;;;21.00;58.38
20710;BME280;10516;51.518;9.864;2022-09-09T12:24:35;98251.50;;;21.10;58.59
20710;BME280;10516;51.518;9.864;2022-09-09T12:27:18;98245.94;;;20.98;58.46
20710;BME280;10516;51.518;9.864;2022-09-09T12:30:10;98252.13;;;21.07;57.88
20710;BME280;10516;51.518;9.864;2022-09-09T12:32:36;98268.75;;;21.05;58.29
20710;BME280;10516;51.518;9.864;2022-09-09T12:37:52;98263.44;;;20.88;58.56
20710;BME280;10516;51.518;9.864;2022-09-09T12:40:31;98256.81;;;20.77;59.30
20710;BME280;10516;51.518;9.864;2022-09-09T12:43:00;98243.94;;;20.86;58.74
20710;BME280;10516;51.518;9.864;2022-09-09T12:45:28;98259.69;;;20.92;58.88
20710;BME280;10516;51.518;9.864;2022-09-09T12:48:09;98259.06;;;20.66;59.73
20710;BME280;10516;51.518;9.864;2022-09-09T12:50:50;98258.59;;;20.64;59.43
20710;BME280;10516;51.518;9.864;2022-09-09T12:55:57;98251.03;;;20.49;59.58
20710;BME280;10516;51.518;9.864;2022-09-09T12:58:23;98247.72;;;20.44;59.49
20710;BME280;10516;51.518;9.864;2022-09-09T13:00:51;98263.50;;;20.50;59.20
20710;BME280;10516;51.518;9.864;2022-09-09T13:03:19;98266.03;;;20.47;59.51
20710;BME280;10516;51.518;9.864;2022-09-09T13:05:49;98249.88;;;20.30;59.46
20710;BME280;10516;51.518;9.864;2022-09-09T13:08:16;98252.66;;;20.04;59.77
20710;BME280;10516;51.518;9.864;2022-09-09T13:13:22;98266.50;;;20.11;59.57
20710;BME280;10516;51.518;9.864;2022-09-09T13:15:54;98245.53;;;19.91;60.06
20710;BME280;10516;51.518;9.864;2022-09-09T13:18:23;98260.78;;;20.04;60.13
20710;BME280;10516;51.518;9.864;2022-09-09T13:20:50;98251.09;;;19.86;60.26
20710;BME280;10516;51.518;9.864;2022-09-09T13:23:18;98254.25;;;20.05;60.04
20710;BME280;10516;51.518;9.864;2022-09-09T13:25:59;98228.31;;;19.95;59.86
20710;BME280;10516;51.518;9.864;2022-09-09T13:28:27;98253.00;;;19.94;60.66
20710;BME280;10516;51.518;9.864;2022-09-09T13:31:00;98256.28;;;20.08;60.49
20710;BME280;10516;51.518;9.864;2022-09-09T13:33:34;98243.59;;;20.00;60.09
20710;BME280;10516;51.518;9.864;2022-09-09T13:36:04;98249.81;;;20.00;60.40
20710;BME280;10516;51.518;9.864;2022-09-09T13:38:37;98252.31;;;20.05;60.52
20710;BME280;10516;51.518;9.864;2022-09-09T13:41:05;98244.66;;;20.07;60.67
20710;BME280;10516;51.518;9.864;2022-09-09T13:43:38;98229.56;;;19.98;60.90
20710;BME280;10516;51.518;9.864;2022-09-09T13:48:58;98236.75;;;19.94;61.24
20710;BME280;10516;51.518;9.864;2022-09-09T13:51:42;98226.16;;;20.09;60.78
20710;BME280;10516;51.518;9.864;2022-09-09T13:54:10;98224.41;;;20.22;60.10
20710;BME280;10516;51.518;9.864;2022-09-09T13:56:38;98210.41;;;20.03;60.13
20710;BME280;10516;51.518;9.864;2022-09-09T13:59:05;98229.63;;;20.27;59.47
20710;BME280;10516;51.518;9.864;2022-09-09T14:01:31;98230.38;;;20.36;59.23
20710;BME280;10516;51.518;9.864;2022-09-09T14:03:58;98236.00;;;20.31;59.62
20710;BME280;10516;51.518;9.864;2022-09-09T14:06:24;98225.63;;;20.33;58.66
20710;BME280;10516;51.518;9.864;2022-09-09T14:08:50;98231.19;;;20.37;57.95
20710;BME280;10516;51.518;9.864;2022-09-09T14:11:17;98235.16;;;20.68;57.90
20710;BME280;10516;51.518;9.864;2022-09-09T14:13:42;98227.56;;;21.24;56.96
20710;BME280;10516;51.518;9.864;2022-09-09T14:16:08;98218.94;;;21.75;55.37
20710;BME280;10516;51.518;9.864;2022-09-09T14:18:37;98237.78;;;22.04;55.12
20710;BME280;10516;51.518;9.864;2022-09-09T14:21:04;98208.91;;;22.24;54.45
20710;BME280;10516;51.518;9.864;2022-09-09T14:23:29;98214.22;;;22.57;54.17
20710;BME280;10516;51.518;9.864;2022-09-09T14:25:55;98214.59;;;22.55;53.53
20710;BME280;10516;51.518;9.864;2022-09-09T14:28:21;98208.16;;;22.60;53.17
20710;BME280;10516;51.518;9.864;2022-09-09T14:30:46;98222.16;;;22.74;53.31
20710;BME280;10516;51.518;9.864;2022-09-09T14:33:14;98214.94;;;22.54;53.62
20710;BME280;10516;51.518;9.864;2022-09-09T14:35:40;98211.75;;;22.52;52.54
20710;BME280;10516;51.518;9.864;2022-09-09T14:38:06;98210.84;;;22.72;53.50
20710;BME280;10516;51.518;9.864;2022-09-09T14:40:36;98212.34;;;22.69;53.78
20710;BME280;10516;51.518;9.864;2022-09-09T14:43:02;98219.34;;;22.82;53.37
20710;BME280;10516;51.518;9.864;2022-09-09T14:45:28;98212.81;;;22.99;53.06
20710;BME280;10516;51.518;9.864;2022-09-09T14:47:54;98206.28;;;22.88;53.45
20710;BME280;10516;51.518;9.864;2022-09-09T14:50:20;98216.59;;;22.94;52.40
20710;BME280;10516;51.518;9.864;2022-09-09T14:52:45;98212.81;;;22.99;52.29
20710;BME280;10516;51.518;9.864;2022-09-09T14:55:11;98197.91;;;22.81;52.39
20710;BME280;10516;51.518;9.864;2022-09-09T14:57:37;98212.66;;;22.80;52.53
20710;BME280;10516;51.518;9.864;2022-09-09T15:00:04;98177.06;;;22.61;52.31